createdAt,value
2019-04-06T00:00:42.011Z,44.58
2019-04-06T00:03:13.685Z,44.93
2019-04-06T00:05:45.487Z,42.83
2019-04-06T00:08:17.559Z,43.13
2019-04-06T00:10:48.988Z,43.73
2019-04-06T00:13:21.772Z,46.58
2019-04-06T00:15:53.091Z,42.77
2019-04-06T00:18:24.514Z,39.57
2019-04-06T00:20:55.943Z,40.73
2019-04-06T00:23:28.715Z,40.93
2019-04-06T00:26:00.986Z,44.13
2019-04-06T00:28:32.999Z,46.00
2019-04-06T00:31:12.981Z,47.57
2019-04-06T00:33:44.613Z,46.63
2019-04-06T00:36:16.370Z,45.53
2019-04-06T00:38:50.087Z,46.03
2019-04-06T00:41:22.035Z,49.93
2019-04-06T00:43:53.790Z,49.60
2019-04-06T00:46:26.432Z,47.23
2019-04-06T00:48:57.966Z,47.50
2019-04-06T00:51:29.417Z,44.00
2019-04-06T00:54:00.888Z,45.70
2019-04-06T00:56:33.253Z,44.30
2019-04-06T00:59:05.620Z,39.47
2019-04-06T01:01:37.732Z,36.10
2019-04-06T01:04:09.564Z,32.90
2019-04-06T01:06:40.942Z,35.73
2019-04-06T01:09:12.401Z,36.30
2019-04-06T01:11:44.019Z,32.70
2019-04-06T01:14:15.485Z,31.50
2019-04-06T01:16:46.972Z,34.40
2019-04-06T01:19:18.353Z,33.00
2019-04-06T01:21:50.393Z,33.93
2019-04-06T01:24:22.588Z,34.17
2019-04-06T01:26:54.149Z,34.60
2019-04-06T01:29:25.986Z,35.27
2019-04-06T01:31:58.592Z,32.73
2019-04-06T01:34:31.383Z,34.47
2019-04-06T01:37:03.324Z,34.70
2019-04-06T01:39:37.191Z,33.60
2019-04-06T01:42:09.240Z,35.67
2019-04-06T01:44:41.803Z,37.13
2019-04-06T01:47:13.203Z,40.30
2019-04-06T01:49:45.210Z,40.27
2019-04-06T01:52:16.655Z,36.55
2019-04-06T01:54:48.974Z,33.87
2019-04-06T01:57:21.496Z,37.87
2019-04-06T01:59:53.818Z,39.20
2019-04-06T02:02:34.645Z,38.53
2019-04-06T02:05:07.058Z,35.00
2019-04-06T02:07:40.273Z,37.10
2019-04-06T02:10:12.334Z,36.57
2019-04-06T02:16:20.088Z,40.43
2019-04-06T02:18:52.101Z,38.20
2019-04-06T02:21:24.253Z,37.10
2019-04-06T02:23:56.062Z,39.07
2019-04-06T02:26:30.567Z,38.53
2019-04-06T02:29:01.611Z,37.93
2019-04-06T02:32:04.183Z,36.77
2019-04-06T02:35:09.955Z,36.50
2019-04-06T02:37:50.325Z,38.87
2019-04-06T02:40:44.460Z,40.33
2019-04-06T02:43:25.031Z,41.13
2019-04-06T02:45:56.872Z,40.03
2019-04-06T02:48:28.376Z,41.73
2019-04-06T02:50:59.931Z,44.60
2019-04-06T02:53:31.345Z,40.10
2019-04-06T02:56:03.170Z,34.43
2019-04-06T02:58:35.750Z,36.53
2019-04-06T03:01:07.728Z,36.60
2019-04-06T03:03:39.466Z,34.40
2019-04-06T03:06:11.096Z,36.53
2019-04-06T03:08:43.297Z,37.13
2019-04-06T03:11:14.769Z,36.07
2019-04-06T03:13:46.894Z,35.90
2019-04-06T03:16:18.942Z,33.00
2019-04-06T03:18:50.325Z,34.73
2019-04-06T03:21:22.207Z,35.17
2019-04-06T03:23:53.894Z,36.93
2019-04-06T03:26:25.375Z,35.53
2019-04-06T03:28:59.534Z,35.93
2019-04-06T03:31:31.460Z,36.80
2019-04-06T03:34:03.624Z,37.17
2019-04-06T03:36:35.646Z,34.83
2019-04-06T03:39:08.513Z,37.67
2019-04-06T03:41:41.437Z,40.63
2019-04-06T03:44:13.221Z,42.23
2019-04-06T03:46:45.538Z,43.60
2019-04-06T03:49:17.288Z,42.97
2019-04-06T03:51:49.354Z,42.37
2019-04-06T03:54:21.051Z,44.97
2019-04-06T03:56:52.832Z,45.27
2019-04-06T03:59:24.172Z,43.10
2019-04-06T04:01:55.426Z,41.60
2019-04-06T04:04:26.748Z,39.87
2019-04-06T04:06:58.228Z,42.30
2019-04-06T04:09:29.584Z,38.33
2019-04-06T04:12:02.222Z,36.87
2019-04-06T04:14:34.311Z,39.03
2019-04-06T04:17:05.761Z,39.63
2019-04-06T04:19:37.712Z,40.53
2019-04-06T04:22:09.500Z,42.57
2019-04-06T04:24:41.196Z,39.03
2019-04-06T04:27:12.447Z,39.53
2019-04-06T04:29:44.241Z,40.00
2019-04-06T04:32:15.624Z,38.67
2019-04-06T04:34:47.691Z,38.73
2019-04-06T04:37:19.429Z,38.30
2019-04-06T04:39:50.746Z,38.67
2019-04-06T04:42:22.009Z,38.40
2019-04-06T04:44:53.692Z,41.80
2019-04-06T04:47:25.494Z,38.35
2019-04-06T04:49:56.754Z,37.80
2019-04-06T04:52:28.186Z,37.23
2019-04-06T04:55:00.325Z,39.73
2019-04-06T04:57:40.111Z,39.45
2019-04-06T05:00:05.675Z,40.03
2019-04-06T05:02:36.988Z,38.23
2019-04-06T05:05:09.676Z,39.97
2019-04-06T05:07:41.591Z,40.67
2019-04-06T05:10:13.349Z,36.83
2019-04-06T05:12:45.012Z,39.20
2019-04-06T05:15:23.221Z,36.00
2019-04-06T05:17:55.301Z,38.07
2019-04-06T05:20:26.943Z,40.77
2019-04-06T05:22:58.695Z,38.67
2019-04-06T05:25:30.023Z,40.40
2019-04-06T05:28:01.758Z,43.30
2019-04-06T05:30:33.439Z,44.03
2019-04-06T05:33:05.100Z,43.68
2019-04-06T05:35:36.851Z,42.30
2019-04-06T05:38:09.377Z,43.13
2019-04-06T05:40:40.692Z,43.33
2019-04-06T05:43:12.449Z,42.83
2019-04-06T05:45:44.542Z,37.37
2019-04-06T05:48:16.354Z,37.77
2019-04-06T05:50:47.626Z,38.87
2019-04-06T05:53:20.694Z,39.07
2019-04-06T05:55:52.481Z,40.17
2019-04-06T05:58:23.882Z,40.50
2019-04-06T06:00:55.530Z,40.00
2019-04-06T06:03:27.875Z,42.10
2019-04-06T06:05:59.596Z,43.50
2019-04-06T06:08:31.278Z,40.25
2019-04-06T06:11:02.844Z,41.07
2019-04-06T06:13:34.228Z,41.67
2019-04-06T06:16:06.116Z,42.62
2019-04-06T06:18:38.073Z,44.20
2019-04-06T06:21:09.352Z,44.90
2019-04-06T06:23:41.591Z,43.20
2019-04-06T06:26:12.903Z,46.07
2019-04-06T06:28:44.663Z,44.67
2019-04-06T06:31:16.188Z,44.08
2019-04-06T06:33:47.728Z,46.47
2019-04-06T06:36:19.175Z,43.33
2019-04-06T06:38:50.526Z,40.80
2019-04-06T06:41:22.008Z,41.63
2019-04-06T06:43:53.490Z,42.60
2019-04-06T06:46:25.061Z,42.67
2019-04-06T06:48:57.322Z,42.33
2019-04-06T06:51:29.192Z,41.17
2019-04-06T06:54:00.733Z,41.43
2019-04-06T06:56:32.179Z,40.90
2019-04-06T06:59:03.948Z,43.33
2019-04-06T07:01:35.356Z,39.87
2019-04-06T07:04:06.648Z,39.40
2019-04-06T07:06:37.916Z,40.30
2019-04-06T07:09:10.114Z,39.00
2019-04-06T07:11:41.404Z,39.77
2019-04-06T07:14:12.775Z,38.20
2019-04-06T07:16:44.737Z,41.18
2019-04-06T07:19:16.357Z,38.53
2019-04-06T07:21:48.999Z,35.93
2019-04-06T07:24:20.393Z,37.63
2019-04-06T07:26:51.663Z,36.68
2019-04-06T07:29:23.078Z,34.93
2019-04-06T07:31:54.415Z,34.63
2019-04-06T07:34:25.804Z,33.60
2019-04-06T07:36:57.364Z,33.63
2019-04-06T07:39:29.092Z,34.30
2019-04-06T07:42:00.391Z,32.83
2019-04-06T07:44:32.147Z,33.10
2019-04-06T07:47:03.417Z,34.33
2019-04-06T07:49:35.679Z,33.70
2019-04-06T07:52:06.917Z,33.07
2019-04-06T07:54:39.258Z,33.63
2019-04-06T07:57:11.390Z,33.98
2019-04-06T07:59:43.478Z,32.97
2019-04-06T08:02:15.233Z,33.47
2019-04-06T08:04:46.655Z,32.87
2019-04-06T08:07:18.488Z,32.93
2019-04-06T08:09:50.309Z,35.23
2019-04-06T08:12:21.668Z,32.85
2019-04-06T08:14:53.328Z,32.43
2019-04-06T08:17:24.684Z,33.67
2019-04-06T08:19:56.530Z,32.97
2019-04-06T08:22:27.861Z,33.43
2019-04-06T08:24:59.195Z,33.92
2019-04-06T08:27:30.888Z,36.27
2019-04-06T08:30:03.515Z,32.33
2019-04-06T08:32:34.863Z,32.80
2019-04-06T08:35:07.043Z,33.23
2019-04-06T08:37:38.404Z,34.67
2019-04-06T08:40:09.994Z,35.90
2019-04-06T08:42:41.663Z,34.40
2019-04-06T08:45:14.587Z,35.23
2019-04-06T08:47:46.033Z,34.77
2019-04-06T08:50:18.060Z,33.47
2019-04-06T08:52:49.431Z,34.55
2019-04-06T08:55:20.781Z,33.33
2019-04-06T08:57:52.536Z,32.90
2019-04-06T09:00:24.494Z,31.10
2019-04-06T09:02:56.935Z,33.00
2019-04-06T09:05:28.656Z,32.30
2019-04-06T09:08:00.332Z,31.13
2019-04-06T09:10:33.174Z,33.53
2019-04-06T09:13:04.430Z,31.87
2019-04-06T09:15:36.026Z,31.60
2019-04-06T09:18:07.474Z,30.47
2019-04-06T09:20:39.560Z,30.50
2019-04-06T09:23:11.521Z,31.73
2019-04-06T09:25:43.025Z,31.20
2019-04-06T09:28:14.448Z,31.33
2019-04-06T09:30:46.771Z,30.82
2019-04-06T09:33:19.225Z,31.10
2019-04-06T09:35:51.151Z,30.72
2019-04-06T09:38:24.532Z,30.67
2019-04-06T09:40:56.672Z,30.07
2019-04-06T09:43:28.738Z,31.27
2019-04-06T09:46:16.796Z,31.47
2019-04-06T09:49:10.429Z,31.00
2019-04-06T09:52:09.615Z,31.23
2019-04-06T09:54:55.485Z,31.53
2019-04-06T09:58:01.505Z,30.30
2019-04-06T10:00:54.717Z,30.27
2019-04-06T10:03:54.750Z,29.40
2019-04-06T10:06:44.908Z,29.23
2019-04-06T10:09:34.216Z,31.10
2019-04-06T10:12:24.630Z,29.57
2019-04-06T10:15:16.118Z,32.60
2019-04-06T10:18:15.785Z,32.13
2019-04-06T10:20:56.637Z,30.43
2019-04-06T10:23:49.953Z,29.57
2019-04-06T10:26:34.461Z,30.70
2019-04-06T10:29:28.298Z,31.65
2019-04-06T10:32:27.311Z,31.57
2019-04-06T10:35:35.812Z,30.10
2019-04-06T10:38:38.804Z,29.70
2019-04-06T10:41:35.231Z,31.30
2019-04-06T10:44:37.694Z,28.07
2019-04-06T10:47:33.621Z,29.80
2019-04-06T10:50:33.674Z,28.85
2019-04-06T10:53:27.115Z,27.67
2019-04-06T10:56:05.760Z,28.47
2019-04-06T10:59:03.692Z,26.30
2019-04-06T11:01:57.051Z,27.48
2019-04-06T11:04:36.026Z,25.03
2019-04-06T11:07:26.972Z,24.37
2019-04-06T11:10:26.450Z,26.23
2019-04-06T11:13:15.850Z,25.53
2019-04-06T11:16:25.274Z,26.63
2019-04-06T11:19:10.576Z,26.50
2019-04-06T11:22:00.342Z,25.10
2019-04-06T11:24:57.796Z,25.03
2019-04-06T11:27:51.147Z,24.73
2019-04-06T11:30:44.141Z,24.67
2019-04-06T11:33:34.903Z,24.75
2019-04-06T11:36:25.549Z,23.22
2019-04-06T11:39:17.483Z,23.60
2019-04-06T11:42:14.260Z,22.67
2019-04-06T11:45:13.491Z,24.67
2019-04-06T11:48:10.017Z,23.98
2019-04-06T11:50:56.704Z,21.93
2019-04-06T11:53:37.422Z,20.00
2019-04-06T11:56:26.119Z,20.00
2019-04-06T11:59:24.530Z,20.50
2019-04-06T12:02:17.744Z,20.27
2019-04-06T12:05:10.993Z,18.50
2019-04-06T12:07:55.651Z,17.77
2019-04-06T12:10:48.443Z,18.53
2019-04-06T12:13:36.989Z,19.87
2019-04-06T12:16:26.226Z,20.55
2019-04-06T12:19:31.761Z,18.67
2019-04-06T12:22:28.428Z,17.63
2019-04-06T12:25:17.430Z,15.97
2019-04-06T12:28:11.202Z,19.07
2019-04-06T12:31:07.750Z,16.93
2019-04-06T12:33:58.755Z,14.70
2019-04-06T12:36:58.009Z,13.33
2019-04-06T12:39:53.036Z,12.80
2019-04-06T12:42:40.902Z,15.20
2019-04-06T12:45:31.592Z,14.28
2019-04-06T12:48:32.629Z,15.33
2019-04-06T12:51:22.988Z,15.70
2019-04-06T12:54:01.129Z,16.10
2019-04-06T12:56:52.141Z,17.13
2019-04-06T12:59:49.028Z,15.48
2019-04-06T13:02:30.486Z,16.75
2019-04-06T13:05:35.793Z,18.03
2019-04-06T13:08:29.344Z,16.23
2019-04-06T13:11:16.125Z,16.80
2019-04-06T13:14:04.231Z,17.27
2019-04-06T13:17:06.825Z,17.00
2019-04-06T13:20:04.605Z,15.03
2019-04-06T13:23:13.164Z,14.63
2019-04-06T13:26:07.502Z,15.00
2019-04-06T13:29:04.650Z,15.73
2019-04-06T13:31:56.300Z,16.60
2019-04-06T13:34:56.115Z,14.50
2019-04-06T13:37:45.889Z,14.33
2019-04-06T13:40:33.899Z,13.20
2019-04-06T13:43:17.744Z,13.83
2019-04-06T13:46:16.949Z,14.70
2019-04-06T13:49:07.951Z,13.07
2019-04-06T13:51:48.020Z,12.90
2019-04-06T13:54:36.942Z,12.07
2019-04-06T13:57:23.239Z,11.63
2019-04-06T14:00:01.969Z,11.85
2019-04-06T14:02:39.401Z,11.70
2019-04-06T14:05:27.328Z,11.93
2019-04-06T14:08:20.338Z,12.40
2019-04-06T14:10:58.893Z,13.53
2019-04-06T14:13:36.486Z,13.32
2019-04-06T14:16:42.350Z,13.73
2019-04-06T14:19:36.023Z,15.13
2019-04-06T14:22:29.192Z,14.23
2019-04-06T14:25:20.853Z,14.98
2019-04-06T14:28:11.513Z,15.57
2019-04-06T14:30:59.925Z,16.30
2019-04-06T14:33:49.328Z,16.62
2019-04-06T14:36:48.669Z,15.67
2019-04-06T14:39:45.170Z,15.93
2019-04-06T14:42:38.429Z,16.17
2019-04-06T14:45:26.161Z,17.83
2019-04-06T14:48:15.621Z,18.20
2019-04-06T14:51:05.916Z,17.77
2019-04-06T14:53:59.062Z,16.52
2019-04-06T14:56:52.495Z,17.00
2019-04-06T14:59:50.163Z,18.43
2019-04-06T15:02:35.388Z,18.37
2019-04-06T15:05:24.248Z,16.82
2019-04-06T15:08:17.912Z,14.93
2019-04-06T15:11:12.220Z,11.70
2019-04-06T15:14:02.043Z,13.17
2019-04-06T15:17:07.695Z,10.82
2019-04-06T15:20:13.027Z,10.57
2019-04-06T15:23:02.348Z,13.20
2019-04-06T15:25:55.881Z,11.65
2019-04-06T15:28:52.982Z,12.23
2019-04-06T15:32:02.115Z,12.97
2019-04-06T15:34:55.384Z,12.28
2019-04-06T15:37:45.965Z,12.45
2019-04-06T15:40:41.396Z,11.10
2019-04-06T15:43:44.475Z,13.03
2019-04-06T15:46:47.402Z,12.30
2019-04-06T15:49:40.754Z,12.87
2019-04-06T15:52:43.074Z,12.23
2019-04-06T15:55:35.311Z,13.03
2019-04-06T15:58:24.364Z,12.50
2019-04-06T16:01:05.387Z,12.80
2019-04-06T16:04:06.566Z,12.73
2019-04-06T16:06:47.302Z,13.22
2019-04-06T16:09:37.526Z,13.67
2019-04-06T16:12:40.390Z,14.65
2019-04-06T16:15:18.697Z,15.15
2019-04-06T16:18:09.082Z,14.80
2019-04-06T16:20:58.296Z,14.35
2019-04-06T16:23:47.304Z,13.93
2019-04-06T16:26:22.420Z,14.60
2019-04-06T16:29:25.069Z,13.43
2019-04-06T16:32:32.925Z,13.43
2019-04-06T16:35:19.717Z,12.40
2019-04-06T16:38:13.185Z,12.13
2019-04-06T16:41:07.578Z,12.07
2019-04-06T16:44:01.502Z,12.10
2019-04-06T16:46:49.782Z,12.05
2019-04-06T16:49:38.791Z,12.07
2019-04-06T16:52:21.892Z,11.40
2019-04-06T16:54:59.983Z,11.97
2019-04-06T16:57:59.611Z,13.00
2019-04-06T17:00:58.930Z,12.73
2019-04-06T17:03:55.604Z,13.43
2019-04-06T17:06:52.202Z,13.30
2019-04-06T17:09:43.515Z,12.53
2019-04-06T17:12:40.399Z,12.80
2019-04-06T17:15:40.111Z,12.60
2019-04-06T17:18:22.233Z,12.03
2019-04-06T17:21:00.056Z,12.07
2019-04-06T17:23:49.239Z,11.65
2019-04-06T17:26:39.521Z,12.63
2019-04-06T17:29:36.506Z,11.95
2019-04-06T17:32:16.063Z,11.10
2019-04-06T17:35:04.962Z,11.83
2019-04-06T17:37:55.997Z,10.90
2019-04-06T17:40:47.205Z,11.00
2019-04-06T17:43:37.443Z,10.50
2019-04-06T17:46:21.077Z,10.68
2019-04-06T17:49:14.385Z,9.63
2019-04-06T17:52:06.818Z,10.23
2019-04-06T17:55:06.237Z,10.48
2019-04-06T17:57:55.109Z,9.68
2019-04-06T18:00:45.463Z,10.03
2019-04-06T18:03:35.691Z,10.27
2019-04-06T18:06:35.105Z,10.00
2019-04-06T18:09:27.363Z,9.75
2019-04-06T18:12:30.065Z,10.25
2019-04-06T18:15:02.046Z,9.90
2019-04-06T18:17:33.765Z,9.97
2019-04-06T18:20:06.009Z,10.27
2019-04-06T18:22:38.170Z,10.20
2019-04-06T18:25:09.845Z,9.38
2019-04-06T18:27:41.199Z,9.90
2019-04-06T18:30:12.923Z,9.90
2019-04-06T18:33:03.046Z,9.40
2019-04-06T18:35:34.088Z,9.97
2019-04-06T18:38:27.553Z,10.50
2019-04-06T18:40:59.309Z,9.90
2019-04-06T18:43:30.671Z,10.43
2019-04-06T18:46:02.475Z,10.13
2019-04-06T18:48:33.874Z,10.07
2019-04-06T18:51:06.539Z,10.63
2019-04-06T18:53:38.830Z,10.70
2019-04-06T18:56:10.814Z,11.07
2019-04-06T18:58:42.472Z,11.03
2019-04-06T19:01:13.846Z,11.03
2019-04-06T19:03:45.549Z,10.80
2019-04-06T19:06:17.870Z,10.87
2019-04-06T19:08:50.201Z,10.83
2019-04-06T19:11:21.913Z,10.50
2019-04-06T19:13:53.804Z,10.87
2019-04-06T19:16:25.635Z,11.93
2019-04-06T19:18:57.055Z,11.37
2019-04-06T19:21:30.399Z,11.40
2019-04-06T19:24:02.245Z,11.50
2019-04-06T19:26:37.065Z,12.05
2019-04-06T19:29:07.339Z,13.40
2019-04-06T19:31:38.891Z,12.85
2019-04-06T19:34:10.294Z,12.17
2019-04-06T19:36:41.656Z,13.05
2019-04-06T19:39:16.074Z,12.20
2019-04-06T19:41:48.276Z,12.13
2019-04-06T19:44:19.610Z,12.83
2019-04-06T19:46:51.587Z,11.87
2019-04-06T19:49:23.092Z,12.97
2019-04-06T19:51:54.746Z,12.90
2019-04-06T19:54:26.861Z,12.75
2019-04-06T19:56:59.231Z,12.00
2019-04-06T19:59:31.576Z,13.07
2019-04-06T20:02:03.061Z,12.37
2019-04-06T20:04:34.546Z,12.70
2019-04-06T20:07:10.960Z,12.73
2019-04-06T20:09:42.175Z,12.15
2019-04-06T20:12:14.135Z,12.00
2019-04-06T20:14:46.040Z,12.80
2019-04-06T20:17:17.879Z,11.80
2019-04-06T20:19:49.856Z,12.00
2019-04-06T20:22:21.687Z,12.43
2019-04-06T20:24:53.272Z,12.07
2019-04-06T20:27:24.614Z,12.27
2019-04-06T20:29:56.393Z,12.87
2019-04-06T20:32:28.293Z,12.90
2019-04-06T20:34:59.600Z,13.13
2019-04-06T20:37:30.893Z,12.58
2019-04-06T20:40:02.781Z,13.53
2019-04-06T20:42:34.894Z,13.63
2019-04-06T20:45:06.706Z,13.40
2019-04-06T20:47:38.610Z,13.53
2019-04-06T20:50:10.470Z,13.30
2019-04-06T20:52:42.619Z,13.63
2019-04-06T20:55:14.689Z,14.47
2019-04-06T20:57:46.155Z,13.37
2019-04-06T21:00:18.762Z,13.93
2019-04-06T21:02:52.271Z,13.35
2019-04-06T21:05:24.861Z,13.53
2019-04-06T21:07:56.662Z,14.13
2019-04-06T21:10:28.399Z,13.07
2019-04-06T21:12:59.915Z,13.93
2019-04-06T21:15:31.911Z,13.83
2019-04-06T21:18:04.388Z,13.83
2019-04-06T21:20:35.761Z,14.00
2019-04-06T21:23:07.340Z,14.27
2019-04-06T21:25:42.947Z,13.83
2019-04-06T21:28:14.598Z,13.67
2019-04-06T21:30:46.665Z,13.30
2019-04-06T21:33:18.658Z,13.58
2019-04-06T21:35:50.171Z,13.53
2019-04-06T21:38:22.809Z,13.75
2019-04-06T21:40:55.191Z,13.67
2019-04-06T21:43:26.552Z,14.10
2019-04-06T21:45:58.424Z,14.15
2019-04-06T21:48:30.191Z,13.90
2019-04-06T21:51:01.904Z,13.97
2019-04-06T21:53:33.207Z,14.78
2019-04-06T21:56:07.367Z,13.73
2019-04-06T21:58:38.129Z,14.50
2019-04-06T22:01:11.931Z,14.20
2019-04-06T22:03:43.927Z,13.87
2019-04-06T22:06:16.166Z,13.70
2019-04-06T22:08:47.553Z,15.00
2019-04-06T22:11:18.941Z,15.13
2019-04-06T22:13:50.305Z,14.18
2019-04-06T22:16:22.317Z,14.47
2019-04-06T22:18:53.707Z,14.23
2019-04-06T22:21:25.123Z,14.87
2019-04-06T22:23:56.532Z,14.23
2019-04-06T22:26:28.417Z,14.07
2019-04-06T22:29:02.764Z,13.93
2019-04-06T22:31:34.244Z,14.47
2019-04-06T22:34:05.790Z,13.87
2019-04-06T22:36:37.201Z,13.57
2019-04-06T22:39:11.134Z,14.80
2019-04-06T22:41:43.337Z,14.63
2019-04-06T22:44:15.376Z,13.93
2019-04-06T22:46:48.559Z,14.60
2019-04-06T22:49:20.419Z,15.03
2019-04-06T22:51:52.798Z,14.77
2019-04-06T22:54:24.657Z,14.03
2019-04-06T22:56:56.532Z,14.10
2019-04-06T22:59:28.008Z,14.15
2019-04-06T23:02:00.130Z,14.47
2019-04-06T23:04:50.652Z,14.50
2019-04-06T23:07:21.971Z,14.13
2019-04-06T23:09:53.348Z,15.40
2019-04-06T23:12:25.508Z,14.83
2019-04-06T23:14:57.759Z,14.50
2019-04-06T23:17:29.228Z,14.77
2019-04-06T23:20:01.189Z,14.87
2019-04-06T23:22:33.150Z,14.00
2019-04-06T23:25:09.402Z,14.25
2019-04-06T23:27:41.227Z,15.30
2019-04-06T23:30:13.149Z,15.40
2019-04-06T23:32:45.595Z,14.57
2019-04-06T23:35:16.983Z,14.40
2019-04-06T23:37:49.213Z,15.15
2019-04-06T23:40:21.478Z,15.73
2019-04-06T23:42:54.940Z,15.68
2019-04-06T23:45:27.514Z,15.63
2019-04-06T23:47:59.437Z,15.00
2019-04-06T23:50:31.445Z,14.75
2019-04-06T23:53:04.245Z,14.70
2019-04-06T23:55:41.432Z,14.30
2019-04-06T23:58:15.263Z,14.18
